Time;durP1;ratioP1;P1;durP2;ratioP2;P2;SDS_P1;SDS_P2;PMS_P1;PMS_P2;Temp;Humidity;BMP_temperature;BMP_pressure;BME280_temperature;BME280_humidity;BME280_pressure;Samples;Min_cycle;Max_cycle;Signal;HPM_P1;HPM_P2
2022/05/12 00:00:23;;;;;;;15.30;3.20;;;;;;;11.37;36.53;99433.55;25093;1315;3026512;-63
2022/05/12 00:02:53;;;;;;;11.80;3.70;;;;;;;11.32;36.49;99439.51;25109;1315;3068447;-64
2022/05/12 00:05:22;;;;;;;9.30;2.90;;;;;;;11.29;36.49;99440.23;25107;1314;3026464;-67
2022/05/12 00:07:52;;;;;;;14.90;3.30;;;;;;;11.25;36.38;99441.02;25167;1315;3049726;-66
2022/05/12 00:10:23;;;;;;;14.60;2.70;;;;;;;11.17;36.55;99447.11;25078;1314;3026932;-69
2022/05/12 00:12:53;;;;;;;20.50;3.50;;;;;;;11.19;36.43;99436.65;25088;1315;3026970;-67
2022/05/12 00:15:24;;;;;;;9.00;2.70;;;;;;;11.14;36.37;99439.45;25109;1315;3026554;-65
2022/05/12 00:17:54;;;;;;;10.50;2.70;;;;;;;11.15;36.26;99444.41;25120;1315;3026471;-65
2022/05/12 00:20:23;;;;;;;14.30;2.70;;;;;;;11.20;36.07;99443.98;25155;1315;3026673;-65
2022/05/12 00:23:13;;;;;;;12.50;3.20;;;;;;;11.28;35.77;99445.19;25051;1315;3026774;-63
2022/05/12 00:25:44;;;;;;;8.30;3.00;;;;;;;11.20;35.80;99437.43;25090;1315;3053875;-67
2022/05/12 00:28:14;;;;;;;12.80;3.50;;;;;;;11.23;35.56;99438.17;25131;1315;3026856;-65
2022/05/12 00:30:44;;;;;;;13.60;3.40;;;;;;;11.28;35.43;99435.38;25111;1315;3026638;-66
2022/05/12 00:33:14;;;;;;;11.60;3.20;;;;;;;11.32;35.26;99434.10;25154;1315;3027054;-68
2022/05/12 00:35:44;;;;;;;15.00;3.50;;;;;;;11.30;35.32;99434.19;25168;1313;3029263;-69
2022/05/12 00:38:13;;;;;;;21.30;3.90;;;;;;;11.26;35.51;99440.08;25094;1315;3028039;-63
2022/05/12 00:40:44;;;;;;;16.60;3.80;;;;;;;11.23;35.51;99432.73;25079;1315;3026682;-63
2022/05/12 00:43:40;;;;;;;19.70;4.00;;;;;;;11.30;35.32;99432.45;25129;1315;3026982;-63
2022/05/12 00:46:12;;;;;;;19.50;5.00;;;;;;;11.27;35.20;99426.48;25192;1314;3053969;-65
2022/05/12 00:48:41;;;;;;;9.50;3.70;;;;;;;11.18;35.32;99430.25;25145;1313;3027939;-67
2022/05/12 00:51:12;;;;;;;11.60;3.80;;;;;;;11.24;35.36;99426.65;25130;1315;3026277;-67
2022/05/12 00:53:42;;;;;;;18.50;3.70;;;;;;;11.32;35.05;99423.59;25090;1315;3052550;-64
2022/05/12 00:56:13;;;;;;;23.60;4.10;;;;;;;11.25;35.39;99423.44;25106;1315;3025996;-63
2022/05/12 00:58:43;;;;;;;14.80;4.10;;;;;;;11.17;35.40;99423.27;25114;1315;3027110;-64
2022/05/12 01:01:12;;;;;;;18.00;3.80;;;;;;;11.18;35.54;99421.30;25076;1315;3026892;-65
2022/05/12 01:03:42;;;;;;;12.40;4.10;;;;;;;11.17;35.50;99424.70;25125;1315;3053493;-65
2022/05/12 01:06:12;;;;;;;14.30;3.70;;;;;;;11.16;35.62;99431.79;25118;1315;3027445;-64
2022/05/12 01:08:41;;;;;;;19.10;4.50;;;;;;;11.13;35.55;99421.08;25057;1315;3026911;-62
2022/05/12 01:11:15;;;;;;;22.90;3.80;;;;;;;11.05;35.72;99424.21;25088;1315;3026522;-68
2022/05/12 01:13:47;;;;;;;13.50;3.80;;;;;;;11.18;35.57;99429.54;25103;1315;3052790;-64
2022/05/12 01:16:38;;;;;;;28.30;4.60;;;;;;;11.10;35.69;99428.45;25064;1315;3028659;-63
2022/05/12 01:19:07;;;;;;;11.30;3.70;;;;;;;11.09;35.86;99425.54;25055;1315;3051490;-65
2022/05/12 01:21:36;;;;;;;14.00;3.40;;;;;;;11.02;35.91;99425.24;25073;1315;3026847;-64
2022/05/12 01:24:05;;;;;;;10.70;3.30;;;;;;;11.07;35.76;99431.42;25121;1315;3057219;-63
2022/05/12 01:26:35;;;;;;;13.80;3.70;;;;;;;11.07;35.74;99435.63;25071;1314;3026321;-64
2022/05/12 01:29:04;;;;;;;19.40;4.20;;;;;;;11.06;35.85;99434.30;25098;1314;3027222;-69
2022/05/12 01:31:34;;;;;;;11.30;3.60;;;;;;;11.05;35.77;99431.77;25102;1315;3057946;-65
2022/05/12 01:34:04;;;;;;;11.90;3.30;;;;;;;11.10;35.55;99429.67;25104;1313;3026275;-66
2022/05/12 01:36:34;;;;;;;21.00;3.30;;;;;;;11.15;35.51;99433.92;25133;1315;3026657;-68
2022/05/12 01:39:05;;;;;;;15.10;3.20;;;;;;;11.17;35.39;99430.80;25089;1313;3027064;-65
2022/05/12 01:41:34;;;;;;;10.40;3.10;;;;;;;11.17;35.44;99428.02;25133;1313;3026715;-62
2022/05/12 01:44:04;;;;;;;17.70;3.90;;;;;;;11.20;35.24;99429.91;25030;1315;3026389;-66
2022/05/12 01:46:33;;;;;;;8.90;2.60;;;;;;;11.16;35.39;99431.73;25095;1315;3053355;-67
2022/05/12 01:49:02;;;;;;;23.40;3.40;;;;;;;11.20;35.37;99436.04;25057;1315;3026856;-63
2022/05/12 01:51:32;;;;;;;12.00;3.20;;;;;;;11.24;35.29;99425.83;25110;1315;3026627;-65
2022/05/12 01:54:02;;;;;;;16.50;4.20;;;;;;;11.29;35.32;99426.77;25153;1315;3051592;-64
2022/05/12 01:56:31;;;;;;;14.70;3.70;;;;;;;11.23;35.32;99428.30;25047;1315;3028745;-67
2022/05/12 01:59:00;;;;;;;16.50;3.60;;;;;;;11.24;35.32;99428.08;25128;1315;3052361;-62
2022/05/12 02:01:29;;;;;;;8.30;2.90;;;;;;;11.28;35.35;99433.61;25131;1315;3026600;-63
2022/05/12 02:03:58;;;;;;;14.60;3.00;;;;;;;11.25;35.25;99427.48;25100;1315;3049027;-69
2022/05/12 02:06:27;;;;;;;15.70;3.60;;;;;;;11.25;35.45;99425.73;25162;1315;3026942;-71
2022/05/12 02:08:57;;;;;;;17.20;5.20;;;;;;;11.25;35.37;99427.81;25028;1315;3029751;-67
2022/05/12 02:11:26;;;;;;;12.50;3.40;;;;;;;11.28;35.43;99428.73;25072;1315;3026462;-62
2022/05/12 02:13:55;;;;;;;13.40;3.80;;;;;;;11.29;35.20;99428.63;25111;1315;3026470;-66
2022/05/12 02:16:25;;;;;;;14.80;3.70;;;;;;;11.26;35.47;99428.98;25126;1315;3053290;-66
2022/05/12 02:18:54;;;;;;;24.40;4.50;;;;;;;11.27;35.29;99429.31;25022;1315;3029887;-69
2022/05/12 02:21:23;;;;;;;12.10;3.30;;;;;;;11.31;35.30;99431.84;25115;1314;3027248;-68
2022/05/12 02:23:52;;;;;;;10.00;3.60;;;;;;;11.23;35.49;99436.41;25035;1315;3052531;-64
2022/05/12 02:26:21;;;;;;;12.00;3.50;;;;;;;11.24;35.57;99433.89;25098;1315;3026265;-66
2022/05/12 02:28:50;;;;;;;11.00;3.30;;;;;;;11.26;35.51;99437.80;25018;1315;3055118;-62
2022/05/12 02:31:19;;;;;;;11.50;3.30;;;;;;;11.21;35.57;99434.93;25114;1315;3027002;-67
2022/05/12 02:33:49;;;;;;;14.50;3.70;;;;;;;11.27;35.56;99444.21;25173;1315;3049474;-68
2022/05/12 02:36:18;;;;;;;14.10;3.60;;;;;;;11.34;35.40;99442.16;25147;1315;3026166;-64
2022/05/12 02:38:47;;;;;;;15.80;4.00;;;;;;;11.27;35.47;99444.73;25443;1314;3026886;-64
2022/05/12 02:41:16;;;;;;;14.10;3.90;;;;;;;11.35;35.53;99444.96;25621;1315;3048923;-62
2022/05/12 02:43:45;;;;;;;8.30;2.70;;;;;;;11.40;35.35;99446.20;25679;1315;3026914;-62
2022/05/12 02:46:15;;;;;;;18.80;3.50;;;;;;;11.37;35.16;99442.17;25376;1315;3057856;-64
2022/05/12 02:48:45;;;;;;;14.00;3.20;;;;;;;11.37;35.34;99439.71;25054;1315;3028695;-66
2022/05/12 02:51:14;;;;;;;9.80;3.10;;;;;;;11.46;35.18;99444.92;25057;1315;3030072;-66
2022/05/12 02:53:44;;;;;;;16.00;3.60;;;;;;;11.50;34.86;99446.07;25118;1315;3026671;-67
2022/05/12 02:56:13;;;;;;;9.20;2.80;;;;;;;11.49;34.95;99445.61;25082;1315;3026121;-67
2022/05/12 02:58:42;;;;;;;11.60;3.00;;;;;;;11.53;34.90;99442.70;25089;1315;3026327;-65
2022/05/12 03:01:11;;;;;;;13.10;3.90;;;;;;;11.56;34.85;99438.52;25074;1315;3052959;-66
2022/05/12 03:03:40;;;;;;;12.00;3.20;;;;;;;11.58;34.87;99446.97;25032;1315;3026420;-63
2022/05/12 03:06:09;;;;;;;10.90;3.00;;;;;;;11.63;34.74;99447.31;25101;1315;3052549;-65
2022/05/12 03:08:42;;;;;;;12.60;3.60;;;;;;;11.67;34.83;99449.20;25053;1315;3026066;-66
2022/05/12 03:11:12;;;;;;;15.80;3.90;;;;;;;11.61;34.93;99447.27;25113;1315;3049228;-65
2022/05/12 03:13:41;;;;;;;12.40;3.50;;;;;;;11.70;34.86;99448.30;25068;1315;3026857;-64
2022/05/12 03:16:11;;;;;;;11.40;3.20;;;;;;;11.70;34.62;99449.85;25040;1315;3058742;-67
2022/05/12 03:18:40;;;;;;;12.60;3.30;;;;;;;11.74;34.69;99451.73;25097;1315;3026699;-64
2022/05/12 03:21:09;;;;;;;13.90;3.20;;;;;;;11.82;34.61;99452.23;25065;1315;3055061;-68
2022/05/12 03:23:40;;;;;;;13.60;2.90;;;;;;;11.79;34.42;99454.16;25058;1315;3026642;-63
2022/05/12 03:26:10;;;;;;;17.20;3.50;;;;;;;11.88;34.13;99450.80;25131;1313;3026434;-68
2022/05/12 03:28:39;;;;;;;15.80;3.30;;;;;;;11.92;34.37;99454.22;25075;1315;3027610;-67
2022/05/12 03:31:08;;;;;;;12.80;3.40;;;;;;;11.99;34.38;99445.19;25075;1313;3026630;-66
2022/05/12 03:33:38;;;;;;;19.60;4.90;;;;;;;12.00;34.23;99452.32;25081;1312;3051907;-63
2022/05/12 03:36:07;;;;;;;15.60;3.80;;;;;;;12.08;34.00;99448.60;25096;1315;3026993;-64
2022/05/12 03:38:37;;;;;;;11.80;3.00;;;;;;;12.14;34.01;99451.73;25165;1315;3027080;-69
2022/05/12 03:41:06;;;;;;;14.00;3.70;;;;;;;12.19;33.65;99455.79;25107;1315;3026871;-68
2022/05/12 03:46:23;;;;;;;12.00;3.00;;;;;;;12.26;33.88;99457.79;25173;1315;3051258;-67
2022/05/12 03:48:52;;;;;;;15.00;3.60;;;;;;;12.31;33.74;99458.31;25036;1315;3026254;-65
2022/05/12 03:51:21;;;;;;;13.60;3.50;;;;;;;12.35;33.81;99454.50;25126;1315;3026008;-68
2022/05/12 03:53:50;;;;;;;21.70;3.50;;;;;;;12.39;33.95;99461.14;25048;1315;3053645;-66
2022/05/12 03:56:19;;;;;;;16.30;4.00;;;;;;;12.36;34.07;99462.33;25093;1315;3026543;-69
2022/05/12 03:58:49;;;;;;;14.90;4.00;;;;;;;12.40;34.15;99464.73;25041;1315;3055458;-64
2022/05/12 04:01:18;;;;;;;17.50;3.50;;;;;;;12.54;34.00;99465.92;25104;1315;3026454;-68
2022/05/12 04:03:48;;;;;;;11.80;3.50;;;;;;;12.56;33.89;99466.45;25160;1313;3049799;-65
2022/05/12 04:06:17;;;;;;;15.90;3.40;;;;;;;12.61;33.89;99465.54;25137;1315;3026572;-67
2022/05/12 04:08:46;;;;;;;13.60;2.80;;;;;;;12.66;33.87;99461.39;25074;1315;3026493;-68
2022/05/12 04:11:15;;;;;;;17.80;4.00;;;;;;;12.69;33.96;99464.69;25135;1315;3048711;-66
2022/05/12 04:13:44;;;;;;;14.50;3.80;;;;;;;12.74;34.10;99460.62;25068;1315;3026445;-66
2022/05/12 04:16:15;;;;;;;15.30;3.50;;;;;;;12.76;34.16;99459.78;25147;1313;3058553;-68
2022/05/12 04:18:45;;;;;;;24.90;4.40;;;;;;;12.87;34.09;99462.01;25100;1315;3026333;-65
2022/05/12 04:21:16;;;;;;;14.00;3.50;;;;;;;12.88;34.24;99458.43;25093;1315;3026604;-65
2022/05/12 04:23:45;;;;;;;11.30;3.50;;;;;;;13.01;33.88;99461.75;25062;1313;3026896;-69
2022/05/12 04:26:14;;;;;;;22.00;4.10;;;;;;;13.03;33.72;99461.61;25122;1313;3028313;-65
2022/05/12 04:28:43;;;;;;;16.30;4.00;;;;;;;13.12;33.84;99469.59;25068;1313;3055467;-70
2022/05/12 04:31:12;;;;;;;18.90;3.50;;;;;;;13.22;33.54;99462.19;25112;1315;3026550;-66
2022/05/12 04:36:29;;;;;;;15.60;3.70;;;;;;;13.43;33.80;99467.91;25040;1313;3055726;-64
2022/05/12 04:38:59;;;;;;;31.50;3.80;;;;;;;13.47;33.83;99464.47;25107;1313;3027576;-68
2022/05/12 04:41:28;;;;;;;14.50;3.80;;;;;;;13.60;33.86;99470.21;25055;1313;3052112;-67
2022/05/12 04:43:58;;;;;;;10.90;3.50;;;;;;;13.70;33.89;99471.08;25162;1315;3026385;-68
2022/05/12 04:46:28;;;;;;;17.80;3.40;;;;;;;13.77;33.68;99469.02;25110;1315;3059257;-66
2022/05/12 04:48:57;;;;;;;14.70;3.70;;;;;;;13.88;33.54;99474.48;25081;1315;3026320;-64
2022/05/12 04:51:26;;;;;;;19.50;3.50;;;;;;;13.98;33.42;99483.64;25069;1313;3026225;-68
2022/05/12 04:53:55;;;;;;;13.90;3.40;;;;;;;14.09;33.42;99471.36;25123;1315;3056592;-64
2022/05/12 04:56:24;;;;;;;15.60;4.60;;;;;;;14.25;33.24;99472.98;25070;1315;3026565;-67
2022/05/12 04:58:54;;;;;;;17.40;3.90;;;;;;;14.35;33.32;99473.85;25120;1313;3054834;-68
2022/05/12 05:01:23;;;;;;;14.40;3.80;;;;;;;14.43;33.32;99475.54;25095;1315;3028541;-70
2022/05/12 05:03:52;;;;;;;12.60;4.20;;;;;;;14.54;33.03;99478.88;25155;1315;3026527;-64
2022/05/12 05:06:21;;;;;;;17.30;4.20;;;;;;;14.61;32.87;99476.07;25056;1315;3053261;-69
2022/05/12 05:08:50;;;;;;;14.40;4.20;;;;;;;14.76;33.07;99476.51;25128;1315;3028075;-65
2022/05/12 05:11:18;;;;;;;16.10;3.80;;;;;;;14.84;33.20;99481.17;25144;1315;3055438;-65
2022/05/12 05:13:59;;;;;;;14.10;3.70;;;;;;;14.99;32.86;99484.47;25167;1315;3054792;-65
2022/05/12 05:16:28;;;;;;;24.40;4.50;;;;;;;15.10;32.86;99485.49;25147;1315;3026629;-67
2022/05/12 05:18:57;;;;;;;17.40;4.20;;;;;;;15.18;33.22;99486.29;25079;1315;3053292;-68
2022/05/12 05:21:26;;;;;;;8.80;3.30;;;;;;;15.28;33.35;99487.98;25150;1315;3026297;-68
2022/05/12 05:23:55;;;;;;;12.70;4.20;;;;;;;15.40;33.02;99491.95;25137;1315;3026565;-70
2022/05/12 05:26:25;;;;;;;11.20;4.00;;;;;;;15.49;32.91;99496.70;25149;1315;3051356;-71
2022/05/12 05:28:54;;;;;;;9.50;3.30;;;;;;;15.57;32.75;99493.78;25070;1314;3026605;-67
2022/05/12 05:31:23;;;;;;;15.00;4.00;;;;;;;15.63;32.93;99488.71;25144;1315;3026976;-66
2022/05/12 05:33:52;;;;;;;17.80;4.30;;;;;;;15.67;33.54;99486.27;25172;1315;3052262;-66
2022/05/12 05:36:21;;;;;;;19.40;4.60;;;;;;;15.71;33.83;99484.70;25160;1315;3026461;-62
2022/05/12 05:38:50;;;;;;;32.30;5.00;;;;;;;15.81;33.54;99487.83;25088;1315;3048082;-68
2022/05/12 05:41:19;;;;;;;13.30;4.10;;;;;;;15.90;33.62;99487.27;25152;1315;3026131;-65
2022/05/12 05:43:49;;;;;;;13.40;4.20;;;;;;;16.05;32.97;99487.79;25145;1315;3070357;-68
2022/05/12 05:46:17;;;;;;;9.90;3.80;;;;;;;16.22;32.54;99480.34;25105;1313;3026335;-68
2022/05/12 05:48:50;;;;;;;16.00;3.00;;;;;;;16.34;32.24;99485.54;25093;1315;3026718;-72
2022/05/12 05:54:07;;;;;;;11.50;3.60;;;;;;;16.58;31.99;99483.00;25111;1315;3058375;-65
2022/05/12 05:56:37;;;;;;;9.10;3.30;;;;;;;16.68;32.39;99480.23;25061;1314;3026355;-70
2022/05/12 05:59:05;;;;;;;12.80;3.60;;;;;;;16.83;32.09;99479.43;25139;1313;3026063;-68
2022/05/12 06:01:35;;;;;;;13.50;3.00;;;;;;;16.94;32.14;99481.15;25113;1315;3058387;-67
2022/05/12 06:04:05;;;;;;;15.10;4.20;;;;;;;17.10;32.22;99477.84;25110;1315;3026508;-73
2022/05/12 06:06:34;;;;;;;15.70;3.50;;;;;;;17.19;31.44;99477.73;25102;1313;3052440;-67
2022/05/12 06:09:03;;;;;;;17.70;3.70;;;;;;;17.27;31.35;99475.79;25115;1315;3026893;-69
2022/05/12 06:11:32;;;;;;;12.90;3.60;;;;;;;17.41;31.74;99473.37;25071;1315;3053971;-65
2022/05/12 06:14:03;;;;;;;17.70;3.90;;;;;;;17.50;30.96;99478.04;25162;1315;3027093;-66
2022/05/12 06:16:32;;;;;;;11.50;3.50;;;;;;;17.59;30.16;99477.77;25108;1315;3028172;-71
2022/05/12 06:19:02;;;;;;;14.20;3.40;;;;;;;17.63;30.13;99471.39;25147;1315;3051465;-64
2022/05/12 06:21:34;;;;;;;11.70;3.40;;;;;;;17.78;30.43;99474.52;25200;1314;3026797;-67
2022/05/12 06:24:03;;;;;;;11.30;3.20;;;;;;;17.85;29.64;99469.77;25128;1315;3027692;-65
2022/05/12 06:26:32;;;;;;;16.00;4.30;;;;;;;17.96;30.09;99479.98;25143;1313;3026245;-65
2022/05/12 06:29:01;;;;;;;14.50;3.50;;;;;;;18.00;30.00;99481.52;25188;1314;3026780;-69
2022/05/12 06:31:32;;;;;;;15.30;3.20;;;;;;;18.06;30.04;99479.58;25121;1315;3056270;-70
2022/05/12 06:34:02;;;;;;;14.00;3.40;;;;;;;18.13;29.76;99470.95;25126;1315;3029143;-64
2022/05/12 06:36:31;;;;;;;18.30;4.20;;;;;;;18.22;29.52;99463.20;25180;1315;3026884;-68
2022/05/12 06:39:00;;;;;;;17.10;3.40;;;;;;;18.23;29.91;99459.58;25125;1314;3055779;-68
2022/05/12 06:41:29;;;;;;;20.30;3.50;;;;;;;18.27;30.18;99456.88;25077;1315;3028628;-66
2022/05/12 06:43:58;;;;;;;11.90;4.30;;;;;;;18.29;30.34;99463.27;25149;1315;3051833;-67
2022/05/12 06:46:28;;;;;;;13.70;3.70;;;;;;;18.44;29.47;99462.23;25153;1315;3026123;-69
2022/05/12 06:48:57;;;;;;;20.60;5.10;;;;;;;18.52;29.46;99458.86;25130;1315;3026396;-68
2022/05/12 06:51:27;;;;;;;22.70;4.30;;;;;;;18.53;29.72;99466.94;25070;1315;3051805;-70
2022/05/12 06:53:56;;;;;;;14.00;3.60;;;;;;;18.67;29.88;99464.53;25094;1315;3026185;-69
2022/05/12 06:56:25;;;;;;;12.70;3.60;;;;;;;18.73;30.05;99463.63;25167;1314;3026999;-65
2022/05/12 06:58:54;;;;;;;16.90;4.40;;;;;;;18.76;30.17;99457.95;25096;1315;3052417;-67
2022/05/12 07:01:24;;;;;;;18.50;4.00;;;;;;;18.82;30.00;99461.16;25202;1315;3026716;-66
2022/05/12 07:03:56;;;;;;;17.60;3.90;;;;;;;18.92;29.66;99466.22;25186;1315;3027181;-68
2022/05/12 07:06:25;;;;;;;18.90;4.10;;;;;;;19.02;29.73;99466.24;25154;1315;3027037;-71
2022/05/12 07:08:54;;;;;;;17.20;4.70;;;;;;;18.98;29.54;99465.20;25120;1315;3026473;-64
2022/05/12 07:11:23;;;;;;;12.30;4.30;;;;;;;19.10;29.11;99472.58;25165;1315;3027405;-66
2022/05/12 07:13:52;;;;;;;15.60;3.80;;;;;;;19.24;28.17;99469.24;25122;1313;3052475;-65
2022/05/12 07:16:21;;;;;;;15.30;3.10;;;;;;;19.31;28.89;99461.85;25154;1313;3027646;-68
2022/05/12 07:18:50;;;;;;;19.20;3.90;;;;;;;19.44;28.46;99467.13;25150;1315;3026091;-67
2022/05/12 07:26:55;;;;;;;16.70;4.10;;;;;;;19.49;26.58;99446.60;25126;1315;3071757;-69
2022/05/12 07:29:26;;;;;;;12.10;4.00;;;;;;;19.50;26.62;99452.87;25145;1315;3040209;-69
2022/05/12 07:31:55;;;;;;;11.80;4.00;;;;;;;19.54;26.12;99448.61;25147;1315;3051146;-71
2022/05/12 07:34:24;;;;;;;15.40;4.00;;;;;;;19.66;25.72;99445.79;25386;1315;3026201;-64
2022/05/12 07:36:53;;;;;;;16.10;3.40;;;;;;;19.80;26.03;99446.93;25580;1315;3028229;-62
2022/05/12 07:39:27;;;;;;;12.30;4.30;;;;;;;19.94;25.48;99447.84;25614;1313;3051493;-68
2022/05/12 07:41:57;;;;;;;13.70;4.00;;;;;;;20.00;25.18;99447.67;25406;1312;3026313;-69
2022/05/12 07:44:32;;;;;;;12.00;4.10;;;;;;;20.05;25.69;99457.02;25169;1313;3026547;-72
2022/05/12 07:47:03;;;;;;;11.90;4.30;;;;;;;20.09;25.79;99448.52;25202;1315;3054110;-72
2022/05/12 07:49:35;;;;;;;16.10;5.30;;;;;;;20.18;25.45;99443.02;25181;1313;3028382;-71
2022/05/12 07:52:05;;;;;;;14.40;4.70;;;;;;;20.30;25.54;99440.73;25174;1313;3029509;-72
2022/05/12 07:54:36;;;;;;;13.70;4.30;;;;;;;20.40;25.56;99442.83;25161;1313;3028372;-66
2022/05/12 07:57:05;;;;;;;18.40;4.70;;;;;;;20.40;25.18;99448.80;25181;1313;3026899;-71
2022/05/12 07:59:34;;;;;;;12.00;4.70;;;;;;;20.37;25.43;99446.77;25171;1315;3027283;-69
2022/05/12 08:02:03;;;;;;;23.30;5.00;;;;;;;20.39;24.94;99444.33;25097;1315;3026932;-69
2022/05/12 08:04:34;;;;;;;14.30;4.60;;;;;;;20.46;25.25;99432.79;25129;1315;3052596;-72
2022/05/12 08:07:04;;;;;;;19.00;5.30;;;;;;;20.36;25.39;99436.93;25152;1314;3026511;-70
2022/05/12 08:09:33;;;;;;;12.20;3.80;;;;;;;20.47;25.47;99450.31;25112;1315;3026565;-68
2022/05/12 08:12:03;;;;;;;12.30;4.20;;;;;;;20.43;24.92;99455.69;25161;1315;3054534;-65
2022/05/12 08:14:32;;;;;;;15.10;4.30;;;;;;;20.43;25.18;99439.74;25143;1313;3026818;-71
2022/05/12 08:17:01;;;;;;;11.90;4.20;;;;;;;20.55;25.29;99447.87;25202;1313;3027507;-71
2022/05/12 08:19:32;;;;;;;18.60;4.40;;;;;;;20.69;25.24;99438.86;25166;1313;3051969;-71
2022/05/12 08:22:02;;;;;;;15.10;5.10;;;;;;;20.79;25.32;99438.40;25144;1312;3026450;-71
2022/05/12 08:24:32;;;;;;;11.30;3.70;;;;;;;20.97;24.97;99438.80;25107;1313;3026913;-68
2022/05/12 08:27:01;;;;;;;9.80;3.90;;;;;;;21.12;25.09;99444.20;25258;1313;3027563;-67
2022/05/12 08:29:30;;;;;;;14.30;4.10;;;;;;;20.99;24.74;99447.66;25128;1313;3050485;-74
2022/05/12 08:31:59;;;;;;;12.40;4.50;;;;;;;20.93;24.76;99452.59;25209;1313;3027293;-72
2022/05/12 08:34:29;;;;;;;16.70;5.10;;;;;;;20.83;24.71;99442.26;25183;1315;3052898;-69
2022/05/12 08:36:59;;;;;;;10.50;3.80;;;;;;;20.76;24.72;99444.52;25185;1313;3027360;-70
2022/05/12 08:39:27;;;;;;;16.40;3.80;;;;;;;20.89;24.37;99439.67;25129;1313;3029027;-72
2022/05/12 08:42:03;;;;;;;14.80;4.30;;;;;;;20.97;24.55;99433.64;25168;1313;3055431;-69
2022/05/12 08:44:35;;;;;;;11.80;5.00;;;;;;;21.15;24.59;99436.70;25169;1315;3051163;-69
2022/05/12 08:47:05;;;;;;;13.40;3.70;;;;;;;21.13;24.48;99450.48;25158;1315;3026596;-72
2022/05/12 08:49:50;;;;;;;14.50;4.30;;;;;;;21.15;24.62;99446.55;25135;1316;3026885;-72
2022/05/12 08:53:22;;;;;;;16.40;4.80;;;;;;;21.45;24.30;99433.05;31495;1319;3026112;-72
2022/05/12 08:55:54;;;;;;;15.60;5.20;;;;;;;21.61;24.15;99430.00;24998;1322;3026520;-71
2022/05/12 08:58:34;;;;;;;12.80;4.30;;;;;;;21.90;23.68;99424.85;25003;1322;3026674;-72
2022/05/12 09:01:03;;;;;;;10.70;4.00;;;;;;;22.00;23.94;99433.07;24999;1322;3058772;-69
2022/05/12 09:04:04;;;;;;;13.10;3.90;;;;;;;21.88;23.68;99447.67;25066;1319;3026406;-74
2022/05/12 09:06:56;;;;;;;16.60;3.70;;;;;;;21.68;23.48;99433.70;24974;1316;3242099;-71
2022/05/12 09:09:30;;;;;;;11.60;3.70;;;;;;;21.75;23.78;99428.79;25122;1316;3059815;-69
2022/05/12 09:12:08;;;;;;;8.10;3.10;;;;;;;21.84;23.85;99443.16;25120;1316;3050520;-72
2022/05/12 09:14:46;;;;;;;11.50;3.80;;;;;;;21.80;23.39;99432.70;25108;1318;3055241;-67
2022/05/12 09:17:19;;;;;;;13.70;3.60;;;;;;;21.90;23.46;99419.88;25164;1313;3052279;-68
2022/05/12 09:19:48;;;;;;;10.40;3.30;;;;;;;22.04;23.46;99429.08;25266;1312;3068443;-69
2022/05/12 09:22:26;;;;;;;16.40;3.50;;;;;;;22.08;23.12;99416.11;25122;1315;3026438;-66
2022/05/12 09:24:56;;;;;;;10.40;3.40;;;;;;;22.14;23.18;99409.41;25155;1313;3053633;-67
2022/05/12 09:27:34;;;;;;;18.60;4.90;;;;;;;22.30;23.43;99405.70;25231;1313;3026485;-70
2022/05/12 09:30:05;;;;;;;9.70;3.30;;;;;;;22.36;23.68;99411.90;25196;1312;3048797;-67
2022/05/12 09:32:35;;;;;;;10.50;3.60;;;;;;;22.41;23.04;99414.67;25137;1313;3026760;-66
2022/05/12 09:35:21;;;;;;;9.40;3.30;;;;;;;22.36;23.31;99413.93;25169;1313;3027011;-68
2022/05/12 09:37:51;;;;;;;12.00;3.50;;;;;;;22.37;23.64;99411.48;25148;1312;3056554;-71
2022/05/12 09:40:37;;;;;;;10.60;3.40;;;;;;;22.55;23.20;99405.34;25149;1312;3026314;-69
2022/05/12 09:43:19;;;;;;;13.50;3.60;;;;;;;22.74;23.09;99420.70;25121;1315;3055851;-67
2022/05/12 09:46:01;;;;;;;14.80;4.00;;;;;;;22.63;23.02;99412.60;25162;1313;3053213;-70
2022/05/12 09:48:36;;;;;;;15.20;4.40;;;;;;;22.40;23.10;99405.30;25205;1313;3071158;-69
2022/05/12 09:51:14;;;;;;;14.60;4.20;;;;;;;22.31;23.12;99412.55;25195;1313;3049149;-72
2022/05/12 09:53:43;;;;;;;15.20;3.80;;;;;;;22.63;22.68;99397.81;25161;1313;3055557;-69
2022/05/12 09:56:39;;;;;;;14.20;3.80;;;;;;;22.65;22.13;99397.73;25208;1313;3026896;-70
2022/05/12 09:59:14;;;;;;;20.80;4.10;;;;;;;22.71;22.54;99398.45;25130;1313;3052052;-69
2022/05/12 10:01:51;;;;;;;10.40;3.40;;;;;;;22.81;22.41;99390.98;25185;1313;3052776;-69
2022/05/12 10:10:24;;;;;;;8.90;4.00;;;;;;;23.27;21.85;99376.95;25179;1313;3052203;-69
2022/05/12 10:12:57;;;;;;;16.50;3.70;;;;;;;23.41;21.74;99376.13;25209;1312;3055651;-69
2022/05/12 10:15:33;;;;;;;21.00;4.40;;;;;;;23.50;21.99;99373.41;25130;1315;3028231;-70
2022/05/12 10:18:22;;;;;;;9.40;3.90;;;;;;;23.34;21.64;99384.45;25180;1313;3068345;-67
2022/05/12 10:20:52;;;;;;;11.40;3.00;;;;;;;23.38;21.33;99385.43;25206;1313;3049198;-65
2022/05/12 10:23:43;;;;;;;21.90;4.10;;;;;;;23.42;21.33;99368.95;25139;1312;3026476;-67
2022/05/12 10:26:35;;;;;;;16.70;3.80;;;;;;;23.35;21.44;99376.40;25184;1313;3052453;-69
2022/05/12 10:29:07;;;;;;;8.50;3.10;;;;;;;23.48;21.80;99381.02;25149;1313;3056643;-69
2022/05/12 10:31:51;;;;;;;7.20;3.00;;;;;;;23.60;21.05;99370.89;25151;1312;3028326;-73
2022/05/12 10:34:39;;;;;;;;;;;;;;;23.68;21.01;99364.55;25163;1312;3053802;-68
2022/05/12 10:37:27;;;;;;;9.90;3.20;;;;;;;23.74;21.43;99377.20;25147;1312;3050330;-69
2022/05/12 10:40:34;;;;;;;10.40;3.20;;;;;;;23.55;21.78;99374.61;25147;1313;3071229;-72
2022/05/12 10:43:21;;;;;;;11.90;3.20;;;;;;;23.64;21.97;99364.23;25234;1313;3052095;-72
2022/05/12 10:45:59;;;;;;;13.00;3.60;;;;;;;23.68;21.83;99358.69;25158;1313;3054851;-71
2022/05/12 10:48:33;;;;;;;13.50;3.30;;;;;;;23.73;21.26;99368.27;25169;1312;3055214;-72
2022/05/12 10:51:08;;;;;;;16.80;4.00;;;;;;;23.86;21.29;99342.64;25197;1312;3026542;-69
2022/05/12 10:53:51;;;;;;;13.00;4.10;;;;;;;23.90;21.30;99339.55;25204;1313;3049216;-68
2022/05/12 10:56:34;;;;;;;12.00;5.10;;;;;;;23.91;21.47;99332.88;25147;1313;3056762;-69
2022/05/12 10:59:25;;;;;;;17.90;4.40;;;;;;;24.16;21.57;99334.13;25183;1313;3050886;-69
2022/05/12 11:02:01;;;;;;;16.60;4.70;;;;;;;24.17;20.65;99349.33;25156;1313;3072377;-69
2022/05/12 11:04:42;;;;;;;11.30;3.90;;;;;;;24.03;20.27;99341.52;25173;1315;3049455;-69
2022/05/12 11:07:32;;;;;;;16.20;4.30;;;;;;;24.05;20.52;99328.02;25172;1313;3054235;-72
2022/05/12 11:10:11;;;;;;;15.10;4.10;;;;;;;24.13;20.52;99316.90;25180;1313;3053150;-73
2022/05/12 11:12:46;;;;;;;22.90;4.30;;;;;;;24.08;20.70;99302.80;25090;1313;3058167;-68
2022/05/12 11:15:21;;;;;;;17.30;4.00;;;;;;;24.28;21.17;99306.52;25189;1313;3050199;-70
2022/05/12 11:18:00;;;;;;;13.00;4.30;;;;;;;24.63;20.94;99296.50;25188;1313;3053882;-73
2022/05/12 11:20:42;;;;;;;21.80;3.60;;;;;;;24.91;20.61;99298.17;25154;1313;3050539;-71
2022/05/12 11:23:20;;;;;;;10.20;2.80;;;;;;;24.98;20.56;99307.39;25103;1316;3071590;-68
2022/05/12 11:26:00;;;;;;;18.00;3.20;;;;;;;24.92;20.46;99293.48;25169;1315;3048897;-72
2022/05/12 11:32:08;;;;;;;15.30;3.20;;;;;;;24.85;19.64;99290.27;25178;1316;3052614;-66
2022/05/12 11:34:37;;;;;;;7.50;2.50;;;;;;;24.93;20.03;99287.38;25101;1312;3056915;-70
2022/05/12 11:37:27;;;;;;;9.70;2.50;;;;;;;24.82;20.18;99298.20;25202;1315;3026536;-69
2022/05/12 11:40:00;;;;;;;18.60;3.40;;;;;;;24.98;20.08;99300.90;25159;1313;3055920;-69
2022/05/12 11:44:23;;;;;;;14.00;3.20;;;;;;;24.91;20.47;99299.55;25194;1313;3056890;-70
2022/05/12 11:45:35;;;;;;;13.60;2.40;;;;;;;24.87;20.38;99297.92;25210;1313;3055392;-69
2022/05/12 11:48:14;;;;;;;20.30;2.90;;;;;;;24.95;20.21;99278.46;25168;1313;3053156;-73
2022/05/12 11:51:12;;;;;;;9.70;2.60;;;;;;;25.09;20.50;99266.69;25171;1313;3050698;-69
2022/05/12 11:53:57;;;;;;;20.40;3.30;;;;;;;25.36;20.65;99270.30;25167;1313;3067720;-71
2022/05/12 11:56:46;;;;;;;15.30;3.00;;;;;;;25.37;20.30;99284.34;25064;1313;3048988;-69